sensor_id;sensor_type;location;lat;lon;timestamp;P1;durP1;ratioP1;P2;durP2;ratioP2
71769;SDS011;59605;52.122;5.420;2022-07-03T00:01:33;1.13;;;0.77;;
71769;SDS011;59605;52.122;5.420;2022-07-03T00:04:00;1.27;;;0.70;;
71769;SDS011;59605;52.122;5.420;2022-07-03T00:06:27;1.88;;;1.10;;
71769;SDS011;59605;52.122;5.420;2022-07-03T00:08:53;2.17;;;1.13;;
71769;SDS011;59605;52.122;5.420;2022-07-03T00:11:20;2.03;;;0.68;;
71769;SDS011;59605;52.122;5.420;2022-07-03T00:13:47;1.83;;;1.17;;
71769;SDS011;59605;52.122;5.420;2022-07-03T00:16:13;2.08;;;0.85;;
71769;SDS011;59605;52.122;5.420;2022-07-03T00:18:40;2.13;;;1.00;;
71769;SDS011;59605;52.122;5.420;2022-07-03T00:21:07;2.45;;;0.90;;
71769;SDS011;59605;52.122;5.420;2022-07-03T00:23:39;2.65;;;1.30;;
71769;SDS011;59605;52.122;5.420;2022-07-03T00:26:11;2.37;;;1.10;;
71769;SDS011;59605;52.122;5.420;2022-07-03T00:28:40;1.90;;;0.80;;
71769;SDS011;59605;52.122;5.420;2022-07-03T00:31:08;3.20;;;1.20;;
71769;SDS011;59605;52.122;5.420;2022-07-03T00:33:37;1.58;;;1.02;;
71769;SDS011;59605;52.122;5.420;2022-07-03T00:36:04;1.80;;;1.05;;
71769;SDS011;59605;52.122;5.420;2022-07-03T00:38:31;2.07;;;1.27;;
71769;SDS011;59605;52.122;5.420;2022-07-03T00:40:58;2.17;;;1.05;;
71769;SDS011;59605;52.122;5.420;2022-07-03T00:43:28;2.85;;;1.20;;
71769;SDS011;59605;52.122;5.420;2022-07-03T00:45:54;1.48;;;0.95;;
71769;SDS011;59605;52.122;5.420;2022-07-03T00:48:37;2.22;;;0.93;;
71769;SDS011;59605;52.122;5.420;2022-07-03T00:51:05;2.00;;;0.90;;
71769;SDS011;59605;52.122;5.420;2022-07-03T00:53:35;2.63;;;1.10;;
71769;SDS011;59605;52.122;5.420;2022-07-03T00:56:03;2.30;;;1.20;;
71769;SDS011;59605;52.122;5.420;2022-07-03T00:58:31;2.47;;;1.27;;
71769;SDS011;59605;52.122;5.420;2022-07-03T01:01:00;2.42;;;1.20;;
71769;SDS011;59605;52.122;5.420;2022-07-03T01:03:27;1.63;;;1.13;;
71769;SDS011;59605;52.122;5.420;2022-07-03T01:06:01;1.58;;;0.90;;
71769;SDS011;59605;52.122;5.420;2022-07-03T01:08:34;2.33;;;1.08;;
71769;SDS011;59605;52.122;5.420;2022-07-03T01:11:14;1.42;;;0.85;;
71769;SDS011;59605;52.122;5.420;2022-07-03T01:17:05;2.67;;;1.03;;
71769;SDS011;59605;52.122;5.420;2022-07-03T01:19:29;2.22;;;1.08;;
71769;SDS011;59605;52.122;5.420;2022-07-03T01:22:28;1.20;;;0.90;;
71769;SDS011;59605;52.122;5.420;2022-07-03T01:30:36;2.17;;;0.60;;
71769;SDS011;59605;52.122;5.420;2022-07-03T01:33:24;2.20;;;0.95;;
71769;SDS011;59605;52.122;5.420;2022-07-03T01:35:57;1.83;;;0.75;;
71769;SDS011;59605;52.122;5.420;2022-07-03T01:38:23;0.85;;;0.73;;
71769;SDS011;59605;52.122;5.420;2022-07-03T01:40:53;2.28;;;0.88;;
71769;SDS011;59605;52.122;5.420;2022-07-03T01:43:29;1.07;;;0.80;;
71769;SDS011;59605;52.122;5.420;2022-07-03T01:45:58;1.50;;;0.88;;
71769;SDS011;59605;52.122;5.420;2022-07-03T01:48:26;1.83;;;1.00;;
71769;SDS011;59605;52.122;5.420;2022-07-03T01:50:54;2.72;;;0.95;;
71769;SDS011;59605;52.122;5.420;2022-07-03T01:53:26;2.40;;;1.05;;
71769;SDS011;59605;52.122;5.420;2022-07-03T01:55:55;2.30;;;0.87;;
71769;SDS011;59605;52.122;5.420;2022-07-03T01:58:26;2.50;;;0.70;;
71769;SDS011;59605;52.122;5.420;2022-07-03T02:01:10;1.40;;;0.98;;
71769;SDS011;59605;52.122;5.420;2022-07-03T02:03:48;1.33;;;0.93;;
71769;SDS011;59605;52.122;5.420;2022-07-03T02:06:29;1.17;;;0.80;;
71769;SDS011;59605;52.122;5.420;2022-07-03T02:09:07;2.50;;;1.00;;
71769;SDS011;59605;52.122;5.420;2022-07-03T02:11:52;1.67;;;0.88;;
71769;SDS011;59605;52.122;5.420;2022-07-03T02:14:19;2.20;;;0.82;;
71769;SDS011;59605;52.122;5.420;2022-07-03T02:16:51;2.58;;;0.90;;
71769;SDS011;59605;52.122;5.420;2022-07-03T02:19:28;1.55;;;1.00;;
71769;SDS011;59605;52.122;5.420;2022-07-03T02:22:03;1.57;;;0.90;;
71769;SDS011;59605;52.122;5.420;2022-07-03T02:24:43;1.00;;;0.80;;
71769;SDS011;59605;52.122;5.420;2022-07-03T02:27:17;1.75;;;0.90;;
71769;SDS011;59605;52.122;5.420;2022-07-03T02:29:50;2.17;;;0.80;;
71769;SDS011;59605;52.122;5.420;2022-07-03T02:32:32;1.75;;;0.73;;
71769;SDS011;59605;52.122;5.420;2022-07-03T02:35:02;2.50;;;1.00;;
71769;SDS011;59605;52.122;5.420;2022-07-03T02:37:32;1.55;;;0.80;;
71769;SDS011;59605;52.122;5.420;2022-07-03T02:40:07;2.08;;;0.85;;
71769;SDS011;59605;52.122;5.420;2022-07-03T02:42:54;1.95;;;0.90;;
71769;SDS011;59605;52.122;5.420;2022-07-03T02:45:29;1.58;;;1.00;;
71769;SDS011;59605;52.122;5.420;2022-07-03T02:48:06;2.13;;;0.80;;
71769;SDS011;59605;52.122;5.420;2022-07-03T02:50:43;1.25;;;0.70;;
71769;SDS011;59605;52.122;5.420;2022-07-03T02:53:24;1.75;;;0.90;;
71769;SDS011;59605;52.122;5.420;2022-07-03T02:56:05;1.60;;;1.10;;
71769;SDS011;59605;52.122;5.420;2022-07-03T03:02:04;1.57;;;0.70;;
71769;SDS011;59605;52.122;5.420;2022-07-03T03:04:57;1.90;;;1.00;;
71769;SDS011;59605;52.122;5.420;2022-07-03T03:07:34;1.40;;;0.75;;
71769;SDS011;59605;52.122;5.420;2022-07-03T03:10:05;1.55;;;0.80;;
71769;SDS011;59605;52.122;5.420;2022-07-03T03:12:37;1.70;;;0.70;;
71769;SDS011;59605;52.122;5.420;2022-07-03T03:15:07;1.17;;;0.60;;
71769;SDS011;59605;52.122;5.420;2022-07-03T03:17:45;1.35;;;0.90;;
71769;SDS011;59605;52.122;5.420;2022-07-03T03:20:17;1.55;;;0.80;;
71769;SDS011;59605;52.122;5.420;2022-07-03T03:22:54;1.30;;;0.70;;
71769;SDS011;59605;52.122;5.420;2022-07-03T03:25:40;2.42;;;0.80;;
71769;SDS011;59605;52.122;5.420;2022-07-03T03:28:07;1.23;;;0.70;;
71769;SDS011;59605;52.122;5.420;2022-07-03T03:30:34;1.40;;;0.80;;
71769;SDS011;59605;52.122;5.420;2022-07-03T03:33:02;1.73;;;0.68;;
71769;SDS011;59605;52.122;5.420;2022-07-03T03:35:40;0.80;;;0.77;;
71769;SDS011;59605;52.122;5.420;2022-07-03T03:38:07;1.40;;;0.80;;
71769;SDS011;59605;52.122;5.420;2022-07-03T03:40:33;1.87;;;1.07;;
71769;SDS011;59605;52.122;5.420;2022-07-03T03:43:00;1.10;;;1.00;;
71769;SDS011;59605;52.122;5.420;2022-07-03T03:45:28;1.25;;;0.85;;
71769;SDS011;59605;52.122;5.420;2022-07-03T03:47:54;1.23;;;0.88;;
71769;SDS011;59605;52.122;5.420;2022-07-03T03:50:21;1.63;;;0.85;;
71769;SDS011;59605;52.122;5.420;2022-07-03T03:52:48;2.17;;;0.90;;
71769;SDS011;59605;52.122;5.420;2022-07-03T03:55:15;1.70;;;1.00;;
71769;SDS011;59605;52.122;5.420;2022-07-03T03:57:41;1.38;;;0.70;;
71769;SDS011;59605;52.122;5.420;2022-07-03T04:00:08;2.33;;;0.98;;
71769;SDS011;59605;52.122;5.420;2022-07-03T04:02:35;2.35;;;0.80;;
71769;SDS011;59605;52.122;5.420;2022-07-03T04:05:01;1.90;;;0.80;;
71769;SDS011;59605;52.122;5.420;2022-07-03T04:07:27;0.85;;;0.60;;
71769;SDS011;59605;52.122;5.420;2022-07-03T04:09:54;1.27;;;0.80;;
71769;SDS011;59605;52.122;5.420;2022-07-03T04:12:20;0.90;;;0.60;;
71769;SDS011;59605;52.122;5.420;2022-07-03T04:14:46;1.27;;;0.60;;
71769;SDS011;59605;52.122;5.420;2022-07-03T04:17:13;1.23;;;0.77;;
71769;SDS011;59605;52.122;5.420;2022-07-03T04:19:39;3.30;;;1.20;;
71769;SDS011;59605;52.122;5.420;2022-07-03T04:22:06;1.90;;;0.73;;
71769;SDS011;59605;52.122;5.420;2022-07-03T04:24:37;0.90;;;0.60;;
71769;SDS011;59605;52.122;5.420;2022-07-03T04:27:04;1.60;;;0.90;;
71769;SDS011;59605;52.122;5.420;2022-07-03T04:29:30;1.27;;;1.17;;
71769;SDS011;59605;52.122;5.420;2022-07-03T04:31:57;1.52;;;0.60;;
71769;SDS011;59605;52.122;5.420;2022-07-03T04:34:23;1.38;;;0.70;;
71769;SDS011;59605;52.122;5.420;2022-07-03T04:36:50;1.10;;;0.68;;
71769;SDS011;59605;52.122;5.420;2022-07-03T04:39:16;1.10;;;0.90;;
71769;SDS011;59605;52.122;5.420;2022-07-03T04:41:42;0.70;;;0.60;;
71769;SDS011;59605;52.122;5.420;2022-07-03T04:44:09;1.05;;;0.60;;
71769;SDS011;59605;52.122;5.420;2022-07-03T04:46:35;1.02;;;0.70;;
71769;SDS011;59605;52.122;5.420;2022-07-03T04:49:02;0.98;;;0.70;;
71769;SDS011;59605;52.122;5.420;2022-07-03T04:51:28;0.77;;;0.60;;
71769;SDS011;59605;52.122;5.420;2022-07-03T04:53:55;0.97;;;0.60;;
71769;SDS011;59605;52.122;5.420;2022-07-03T04:56:21;2.80;;;0.90;;
71769;SDS011;59605;52.122;5.420;2022-07-03T04:58:48;1.00;;;0.73;;
71769;SDS011;59605;52.122;5.420;2022-07-03T05:01:14;2.03;;;0.70;;
71769;SDS011;59605;52.122;5.420;2022-07-03T05:03:40;1.63;;;0.52;;
71769;SDS011;59605;52.122;5.420;2022-07-03T05:06:07;0.80;;;0.60;;
71769;SDS011;59605;52.122;5.420;2022-07-03T05:08:33;1.52;;;0.60;;
71769;SDS011;59605;52.122;5.420;2022-07-03T05:11:00;0.85;;;0.60;;
71769;SDS011;59605;52.122;5.420;2022-07-03T05:13:26;1.33;;;0.80;;
71769;SDS011;59605;52.122;5.420;2022-07-03T05:15:53;1.38;;;0.60;;
71769;SDS011;59605;52.122;5.420;2022-07-03T05:18:19;1.20;;;0.70;;
71769;SDS011;59605;52.122;5.420;2022-07-03T05:20:47;1.30;;;0.60;;
71769;SDS011;59605;52.122;5.420;2022-07-03T05:23:13;1.02;;;0.80;;
71769;SDS011;59605;52.122;5.420;2022-07-03T05:25:40;1.17;;;0.63;;
71769;SDS011;59605;52.122;5.420;2022-07-03T05:28:06;1.15;;;0.57;;
71769;SDS011;59605;52.122;5.420;2022-07-03T05:30:33;1.60;;;0.40;;
71769;SDS011;59605;52.122;5.420;2022-07-03T05:32:59;1.20;;;0.50;;
71769;SDS011;59605;52.122;5.420;2022-07-03T05:35:25;1.00;;;0.55;;
71769;SDS011;59605;52.122;5.420;2022-07-03T05:37:52;0.90;;;0.60;;
71769;SDS011;59605;52.122;5.420;2022-07-03T05:40:18;1.83;;;0.63;;
71769;SDS011;59605;52.122;5.420;2022-07-03T05:42:45;1.20;;;0.50;;
71769;SDS011;59605;52.122;5.420;2022-07-03T05:45:11;1.23;;;0.60;;
71769;SDS011;59605;52.122;5.420;2022-07-03T05:47:38;1.25;;;0.55;;
71769;SDS011;59605;52.122;5.420;2022-07-03T05:50:04;0.70;;;0.40;;
71769;SDS011;59605;52.122;5.420;2022-07-03T05:52:31;1.13;;;0.40;;
71769;SDS011;59605;52.122;5.420;2022-07-03T05:54:58;0.80;;;0.40;;
71769;SDS011;59605;52.122;5.420;2022-07-03T05:57:24;1.02;;;0.50;;
71769;SDS011;59605;52.122;5.420;2022-07-03T05:59:56;1.30;;;0.60;;
71769;SDS011;59605;52.122;5.420;2022-07-03T06:02:23;1.05;;;0.50;;
71769;SDS011;59605;52.122;5.420;2022-07-03T06:04:49;1.13;;;0.52;;
71769;SDS011;59605;52.122;5.420;2022-07-03T06:07:15;1.07;;;0.50;;
71769;SDS011;59605;52.122;5.420;2022-07-03T06:09:42;0.82;;;0.40;;
71769;SDS011;59605;52.122;5.420;2022-07-03T06:12:10;1.30;;;0.50;;
71769;SDS011;59605;52.122;5.420;2022-07-03T06:14:37;0.40;;;0.40;;
71769;SDS011;59605;52.122;5.420;2022-07-03T06:17:03;0.60;;;0.57;;
71769;SDS011;59605;52.122;5.420;2022-07-03T06:19:30;0.47;;;0.43;;
71769;SDS011;59605;52.122;5.420;2022-07-03T06:21:56;1.48;;;0.60;;
71769;SDS011;59605;52.122;5.420;2022-07-03T06:24:23;2.22;;;0.70;;
71769;SDS011;59605;52.122;5.420;2022-07-03T06:26:49;2.42;;;0.47;;
71769;SDS011;59605;52.122;5.420;2022-07-03T06:29:16;1.75;;;0.60;;
71769;SDS011;59605;52.122;5.420;2022-07-03T06:31:42;2.77;;;0.60;;
71769;SDS011;59605;52.122;5.420;2022-07-03T06:34:09;1.70;;;0.70;;
71769;SDS011;59605;52.122;5.420;2022-07-03T06:36:36;3.88;;;0.45;;
71769;SDS011;59605;52.122;5.420;2022-07-03T06:39:02;2.70;;;0.40;;
71769;SDS011;59605;52.122;5.420;2022-07-03T06:41:29;2.63;;;0.65;;
71769;SDS011;59605;52.122;5.420;2022-07-03T06:43:55;3.53;;;0.50;;
71769;SDS011;59605;52.122;5.420;2022-07-03T06:46:22;4.82;;;0.60;;
71769;SDS011;59605;52.122;5.420;2022-07-03T06:48:48;1.58;;;0.40;;
71769;SDS011;59605;52.122;5.420;2022-07-03T06:51:15;2.55;;;0.50;;
71769;SDS011;59605;52.122;5.420;2022-07-03T06:53:42;1.90;;;0.40;;
71769;SDS011;59605;52.122;5.420;2022-07-03T06:56:08;4.53;;;0.33;;
71769;SDS011;59605;52.122;5.420;2022-07-03T06:58:35;1.58;;;0.40;;
71769;SDS011;59605;52.122;5.420;2022-07-03T07:01:01;2.65;;;0.40;;
71769;SDS011;59605;52.122;5.420;2022-07-03T07:03:28;1.83;;;0.40;;
71769;SDS011;59605;52.122;5.420;2022-07-03T07:05:54;1.73;;;0.40;;
71769;SDS011;59605;52.122;5.420;2022-07-03T07:08:21;2.73;;;0.43;;
71769;SDS011;59605;52.122;5.420;2022-07-03T07:10:47;2.55;;;0.50;;
71769;SDS011;59605;52.122;5.420;2022-07-03T07:13:13;1.58;;;0.70;;
71769;SDS011;59605;52.122;5.420;2022-07-03T07:15:40;2.90;;;0.50;;
71769;SDS011;59605;52.122;5.420;2022-07-03T07:18:06;1.00;;;0.30;;
71769;SDS011;59605;52.122;5.420;2022-07-03T07:20:32;0.90;;;0.30;;
71769;SDS011;59605;52.122;5.420;2022-07-03T07:22:59;1.88;;;0.32;;
71769;SDS011;59605;52.122;5.420;2022-07-03T07:25:25;3.55;;;0.45;;
71769;SDS011;59605;52.122;5.420;2022-07-03T07:27:52;7.10;;;0.45;;
71769;SDS011;59605;52.122;5.420;2022-07-03T07:30:18;3.00;;;0.50;;
71769;SDS011;59605;52.122;5.420;2022-07-03T07:32:44;2.50;;;0.60;;
71769;SDS011;59605;52.122;5.420;2022-07-03T07:35:13;1.85;;;0.40;;
71769;SDS011;59605;52.122;5.420;2022-07-03T07:37:39;4.75;;;0.50;;
71769;SDS011;59605;52.122;5.420;2022-07-03T07:40:06;3.55;;;0.60;;
71769;SDS011;59605;52.122;5.420;2022-07-03T07:42:33;1.83;;;0.38;;
71769;SDS011;59605;52.122;5.420;2022-07-03T07:44:59;3.17;;;0.30;;
71769;SDS011;59605;52.122;5.420;2022-07-03T07:47:26;1.10;;;0.32;;
71769;SDS011;59605;52.122;5.420;2022-07-03T07:49:52;3.25;;;0.57;;
71769;SDS011;59605;52.122;5.420;2022-07-03T07:52:18;3.50;;;0.50;;
71769;SDS011;59605;52.122;5.420;2022-07-03T07:54:45;1.95;;;0.40;;
71769;SDS011;59605;52.122;5.420;2022-07-03T07:57:11;2.47;;;0.50;;
71769;SDS011;59605;52.122;5.420;2022-07-03T07:59:37;2.15;;;0.30;;
71769;SDS011;59605;52.122;5.420;2022-07-03T08:02:10;3.42;;;0.30;;
71769;SDS011;59605;52.122;5.420;2022-07-03T08:04:55;3.78;;;0.40;;
71769;SDS011;59605;52.122;5.420;2022-07-03T08:07:40;3.53;;;1.02;;
71769;SDS011;59605;52.122;5.420;2022-07-03T08:10:06;2.60;;;1.30;;
71769;SDS011;59605;52.122;5.420;2022-07-03T08:12:33;3.22;;;0.55;;
71769;SDS011;59605;52.122;5.420;2022-07-03T08:14:59;0.80;;;0.30;;
71769;SDS011;59605;52.122;5.420;2022-07-03T08:17:26;3.42;;;0.47;;
71769;SDS011;59605;52.122;5.420;2022-07-03T08:19:52;6.82;;;0.50;;
71769;SDS011;59605;52.122;5.420;2022-07-03T08:22:19;2.07;;;0.40;;
71769;SDS011;59605;52.122;5.420;2022-07-03T08:24:45;1.52;;;0.30;;
71769;SDS011;59605;52.122;5.420;2022-07-03T08:27:12;2.50;;;0.40;;
71769;SDS011;59605;52.122;5.420;2022-07-03T08:29:38;2.88;;;0.38;;
71769;SDS011;59605;52.122;5.420;2022-07-03T08:32:04;1.92;;;0.43;;
71769;SDS011;59605;52.122;5.420;2022-07-03T08:34:35;0.27;;;0.20;;
71769;SDS011;59605;52.122;5.420;2022-07-03T08:37:02;2.90;;;0.50;;
71769;SDS011;59605;52.122;5.420;2022-07-03T08:39:29;2.00;;;0.30;;
71769;SDS011;59605;52.122;5.420;2022-07-03T08:41:55;4.43;;;0.40;;
71769;SDS011;59605;52.122;5.420;2022-07-03T08:44:23;2.72;;;0.40;;
71769;SDS011;59605;52.122;5.420;2022-07-03T08:46:51;2.87;;;0.47;;
71769;SDS011;59605;52.122;5.420;2022-07-03T08:49:18;3.70;;;0.40;;
71769;SDS011;59605;52.122;5.420;2022-07-03T08:51:45;1.50;;;0.40;;
71769;SDS011;59605;52.122;5.420;2022-07-03T08:54:13;1.77;;;0.40;;
71769;SDS011;59605;52.122;5.420;2022-07-03T08:56:39;2.80;;;0.50;;
71769;SDS011;59605;52.122;5.420;2022-07-03T08:59:08;2.33;;;0.33;;
71769;SDS011;59605;52.122;5.420;2022-07-03T09:01:34;3.33;;;0.40;;
71769;SDS011;59605;52.122;5.420;2022-07-03T09:04:10;4.70;;;0.43;;
71769;SDS011;59605;52.122;5.420;2022-07-03T09:06:41;2.28;;;0.55;;
71769;SDS011;59605;52.122;5.420;2022-07-03T09:09:08;4.22;;;0.80;;
71769;SDS011;59605;52.122;5.420;2022-07-03T09:11:38;4.23;;;0.30;;
71769;SDS011;59605;52.122;5.420;2022-07-03T09:14:04;4.45;;;0.50;;
71769;SDS011;59605;52.122;5.420;2022-07-03T09:16:35;4.93;;;0.60;;
71769;SDS011;59605;52.122;5.420;2022-07-03T09:19:03;3.25;;;0.40;;
71769;SDS011;59605;52.122;5.420;2022-07-03T09:21:37;1.65;;;0.60;;
71769;SDS011;59605;52.122;5.420;2022-07-03T09:24:07;5.27;;;0.50;;
71769;SDS011;59605;52.122;5.420;2022-07-03T09:26:49;3.28;;;0.35;;
71769;SDS011;59605;52.122;5.420;2022-07-03T09:29:18;1.77;;;0.50;;
71769;SDS011;59605;52.122;5.420;2022-07-03T09:31:44;1.80;;;0.32;;
71769;SDS011;59605;52.122;5.420;2022-07-03T09:34:21;3.38;;;0.50;;
71769;SDS011;59605;52.122;5.420;2022-07-03T09:36:49;1.37;;;0.40;;
71769;SDS011;59605;52.122;5.420;2022-07-03T09:44:43;2.38;;;0.40;;
71769;SDS011;59605;52.122;5.420;2022-07-03T09:54:55;1.30;;;0.40;;
71769;SDS011;59605;52.122;5.420;2022-07-03T09:57:29;1.83;;;0.40;;
71769;SDS011;59605;52.122;5.420;2022-07-03T10:00:09;3.08;;;0.73;;
71769;SDS011;59605;52.122;5.420;2022-07-03T10:05:39;1.63;;;0.40;;
71769;SDS011;59605;52.122;5.420;2022-07-03T10:08:10;0.32;;;0.22;;
71769;SDS011;59605;52.122;5.420;2022-07-03T10:10:45;1.98;;;0.50;;
71769;SDS011;59605;52.122;5.420;2022-07-03T10:13:14;2.30;;;0.30;;
71769;SDS011;59605;52.122;5.420;2022-07-03T10:15:41;2.13;;;0.30;;
71769;SDS011;59605;52.122;5.420;2022-07-03T10:18:09;1.63;;;0.40;;
71769;SDS011;59605;52.122;5.420;2022-07-03T10:20:45;2.53;;;0.93;;
71769;SDS011;59605;52.122;5.420;2022-07-03T10:23:14;4.43;;;0.40;;
71769;SDS011;59605;52.122;5.420;2022-07-03T10:25:47;4.38;;;0.65;;
71769;SDS011;59605;52.122;5.420;2022-07-03T10:28:15;1.83;;;0.40;;
71769;SDS011;59605;52.122;5.420;2022-07-03T10:30:45;1.40;;;0.43;;
71769;SDS011;59605;52.122;5.420;2022-07-03T10:33:13;4.13;;;0.60;;
71769;SDS011;59605;52.122;5.420;2022-07-03T10:35:42;2.92;;;0.40;;
71769;SDS011;59605;52.122;5.420;2022-07-03T10:43:36;0.93;;;0.28;;
71769;SDS011;59605;52.122;5.420;2022-07-03T10:46:24;0.93;;;0.38;;
71769;SDS011;59605;52.122;5.420;2022-07-03T10:51:21;2.00;;;0.40;;
71769;SDS011;59605;52.122;5.420;2022-07-03T10:53:48;1.10;;;0.37;;
71769;SDS011;59605;52.122;5.420;2022-07-03T10:56:15;1.48;;;0.40;;
71769;SDS011;59605;52.122;5.420;2022-07-03T10:58:57;2.60;;;0.40;;
71769;SDS011;59605;52.122;5.420;2022-07-03T11:01:28;0.77;;;0.30;;
71769;SDS011;59605;52.122;5.420;2022-07-03T11:04:00;1.63;;;0.60;;
71769;SDS011;59605;52.122;5.420;2022-07-03T11:09:09;1.67;;;0.40;;
71769;SDS011;59605;52.122;5.420;2022-07-03T11:11:40;1.83;;;0.40;;
71769;SDS011;59605;52.122;5.420;2022-07-03T11:14:26;1.92;;;0.30;;
71769;SDS011;59605;52.122;5.420;2022-07-03T11:17:15;2.75;;;0.32;;
71769;SDS011;59605;52.122;5.420;2022-07-03T11:19:47;2.07;;;0.60;;
71769;SDS011;59605;52.122;5.420;2022-07-03T11:22:51;3.78;;;0.30;;
71769;SDS011;59605;52.122;5.420;2022-07-03T11:25:23;2.35;;;0.55;;
71769;SDS011;59605;52.122;5.420;2022-07-03T11:27:51;0.63;;;0.30;;
71769;SDS011;59605;52.122;5.420;2022-07-03T11:30:18;1.02;;;0.40;;
71769;SDS011;59605;52.122;5.420;2022-07-03T11:32:48;1.50;;;0.30;;
71769;SDS011;59605;52.122;5.420;2022-07-03T11:38:29;4.32;;;0.50;;
71769;SDS011;59605;52.122;5.420;2022-07-03T11:40:56;2.28;;;0.63;;
71769;SDS011;59605;52.122;5.420;2022-07-03T11:43:25;3.40;;;0.32;;
71769;SDS011;59605;52.122;5.420;2022-07-03T11:45:51;1.67;;;0.43;;
71769;SDS011;59605;52.122;5.420;2022-07-03T11:48:20;1.88;;;0.40;;
71769;SDS011;59605;52.122;5.420;2022-07-03T11:50:48;4.63;;;0.65;;
71769;SDS011;59605;52.122;5.420;2022-07-03T11:56:09;2.42;;;0.57;;
71769;SDS011;59605;52.122;5.420;2022-07-03T12:03:48;4.03;;;0.60;;
71769;SDS011;59605;52.122;5.420;2022-07-03T12:06:16;4.97;;;0.40;;
71769;SDS011;59605;52.122;5.420;2022-07-03T12:08:43;3.30;;;0.50;;
71769;SDS011;59605;52.122;5.420;2022-07-03T12:11:12;1.93;;;0.47;;
71769;SDS011;59605;52.122;5.420;2022-07-03T12:13:40;2.90;;;0.40;;
71769;SDS011;59605;52.122;5.420;2022-07-03T12:16:08;2.53;;;0.50;;
71769;SDS011;59605;52.122;5.420;2022-07-03T12:18:55;1.50;;;0.40;;
71769;SDS011;59605;52.122;5.420;2022-07-03T12:21:22;3.20;;;0.85;;
71769;SDS011;59605;52.122;5.420;2022-07-03T12:23:50;2.13;;;0.47;;
71769;SDS011;59605;52.122;5.420;2022-07-03T12:26:27;3.20;;;0.50;;
71769;SDS011;59605;52.122;5.420;2022-07-03T12:28:59;2.50;;;0.40;;
71769;SDS011;59605;52.122;5.420;2022-07-03T12:31:30;2.10;;;0.40;;
71769;SDS011;59605;52.122;5.420;2022-07-03T12:33:57;1.52;;;0.40;;
71769;SDS011;59605;52.122;5.420;2022-07-03T12:36:25;1.47;;;0.30;;
71769;SDS011;59605;52.122;5.420;2022-07-03T12:38:52;2.65;;;0.38;;
71769;SDS011;59605;52.122;5.420;2022-07-03T12:41:19;2.38;;;0.40;;
71769;SDS011;59605;52.122;5.420;2022-07-03T12:43:46;2.67;;;0.38;;
71769;SDS011;59605;52.122;5.420;2022-07-03T12:46:34;2.80;;;0.40;;
71769;SDS011;59605;52.122;5.420;2022-07-03T12:49:09;1.93;;;0.40;;
71769;SDS011;59605;52.122;5.420;2022-07-03T12:51:46;4.88;;;0.45;;
71769;SDS011;59605;52.122;5.420;2022-07-03T12:54:15;5.55;;;0.47;;
71769;SDS011;59605;52.122;5.420;2022-07-03T12:57:02;2.17;;;0.50;;
71769;SDS011;59605;52.122;5.420;2022-07-03T13:00:02;4.75;;;0.40;;
71769;SDS011;59605;52.122;5.420;2022-07-03T13:02:29;3.40;;;0.40;;
71769;SDS011;59605;52.122;5.420;2022-07-03T13:04:55;3.63;;;0.60;;
71769;SDS011;59605;52.122;5.420;2022-07-03T13:07:27;3.80;;;0.50;;
71769;SDS011;59605;52.122;5.420;2022-07-03T13:09:54;3.30;;;0.40;;
71769;SDS011;59605;52.122;5.420;2022-07-03T13:12:21;1.38;;;0.38;;
71769;SDS011;59605;52.122;5.420;2022-07-03T13:14:55;2.60;;;0.40;;
71769;SDS011;59605;52.122;5.420;2022-07-03T13:20:24;7.07;;;0.75;;
71769;SDS011;59605;52.122;5.420;2022-07-03T13:22:56;3.30;;;0.60;;
71769;SDS011;59605;52.122;5.420;2022-07-03T13:25:23;1.05;;;0.30;;
71769;SDS011;59605;52.122;5.420;2022-07-03T13:27:50;1.70;;;0.30;;
71769;SDS011;59605;52.122;5.420;2022-07-03T13:30:17;2.58;;;0.40;;
71769;SDS011;59605;52.122;5.420;2022-07-03T13:32:45;5.35;;;0.40;;
71769;SDS011;59605;52.122;5.420;2022-07-03T13:35:12;0.70;;;0.40;;
71769;SDS011;59605;52.122;5.420;2022-07-03T13:37:38;2.05;;;0.50;;
71769;SDS011;59605;52.122;5.420;2022-07-03T13:40:05;1.10;;;0.40;;
71769;SDS011;59605;52.122;5.420;2022-07-03T13:42:32;1.73;;;0.35;;
71769;SDS011;59605;52.122;5.420;2022-07-03T13:44:58;4.38;;;0.60;;
71769;SDS011;59605;52.122;5.420;2022-07-03T13:47:24;2.72;;;0.40;;
71769;SDS011;59605;52.122;5.420;2022-07-03T13:49:51;2.30;;;0.80;;
71769;SDS011;59605;52.122;5.420;2022-07-03T13:52:18;2.00;;;0.50;;
71769;SDS011;59605;52.122;5.420;2022-07-03T13:54:44;1.63;;;0.38;;
71769;SDS011;59605;52.122;5.420;2022-07-03T13:57:12;2.50;;;0.40;;
71769;SDS011;59605;52.122;5.420;2022-07-03T13:59:39;0.88;;;0.30;;
71769;SDS011;59605;52.122;5.420;2022-07-03T14:02:05;2.20;;;0.50;;
71769;SDS011;59605;52.122;5.420;2022-07-03T14:04:32;2.10;;;0.50;;
71769;SDS011;59605;52.122;5.420;2022-07-03T14:06:59;2.92;;;0.47;;
71769;SDS011;59605;52.122;5.420;2022-07-03T14:09:25;1.63;;;0.40;;
71769;SDS011;59605;52.122;5.420;2022-07-03T14:11:52;8.75;;;1.40;;
71769;SDS011;59605;52.122;5.420;2022-07-03T14:14:18;3.03;;;0.40;;
71769;SDS011;59605;52.122;5.420;2022-07-03T14:16:44;1.53;;;0.30;;
71769;SDS011;59605;52.122;5.420;2022-07-03T14:19:16;3.20;;;0.70;;
71769;SDS011;59605;52.122;5.420;2022-07-03T14:21:43;1.42;;;0.30;;
71769;SDS011;59605;52.122;5.420;2022-07-03T14:24:09;2.38;;;0.40;;
71769;SDS011;59605;52.122;5.420;2022-07-03T14:26:36;6.75;;;1.15;;
71769;SDS011;59605;52.122;5.420;2022-07-03T14:29:21;1.57;;;0.40;;
71769;SDS011;59605;52.122;5.420;2022-07-03T14:32:06;4.82;;;0.40;;
71769;SDS011;59605;52.122;5.420;2022-07-03T14:34:51;1.92;;;0.73;;
71769;SDS011;59605;52.122;5.420;2022-07-03T14:37:18;0.52;;;0.40;;
71769;SDS011;59605;52.122;5.420;2022-07-03T14:39:48;1.38;;;0.50;;
71769;SDS011;59605;52.122;5.420;2022-07-03T14:42:16;1.67;;;0.50;;
71769;SDS011;59605;52.122;5.420;2022-07-03T14:44:44;3.30;;;0.40;;
71769;SDS011;59605;52.122;5.420;2022-07-03T14:47:11;3.85;;;0.40;;
71769;SDS011;59605;52.122;5.420;2022-07-03T14:49:40;2.00;;;0.57;;
71769;SDS011;59605;52.122;5.420;2022-07-03T14:52:07;1.23;;;0.50;;
71769;SDS011;59605;52.122;5.420;2022-07-03T14:54:34;1.73;;;0.40;;
71769;SDS011;59605;52.122;5.420;2022-07-03T14:57:02;4.72;;;0.50;;
71769;SDS011;59605;52.122;5.420;2022-07-03T14:59:55;4.53;;;0.40;;
71769;SDS011;59605;52.122;5.420;2022-07-03T15:02:33;7.57;;;0.73;;
71769;SDS011;59605;52.122;5.420;2022-07-03T15:05:15;0.65;;;0.30;;
71769;SDS011;59605;52.122;5.420;2022-07-03T15:07:44;2.80;;;0.40;;
71769;SDS011;59605;52.122;5.420;2022-07-03T15:10:23;1.20;;;0.30;;
71769;SDS011;59605;52.122;5.420;2022-07-03T15:12:49;1.85;;;0.57;;
71769;SDS011;59605;52.122;5.420;2022-07-03T15:15:19;3.08;;;2.05;;
71769;SDS011;59605;52.122;5.420;2022-07-03T15:17:50;2.40;;;0.40;;
71769;SDS011;59605;52.122;5.420;2022-07-03T15:20:18;4.87;;;0.50;;
71769;SDS011;59605;52.122;5.420;2022-07-03T15:22:46;2.67;;;0.57;;
71769;SDS011;59605;52.122;5.420;2022-07-03T15:25:13;2.38;;;0.45;;
71769;SDS011;59605;52.122;5.420;2022-07-03T15:27:45;2.08;;;0.52;;
71769;SDS011;59605;52.122;5.420;2022-07-03T15:30:16;2.58;;;0.60;;
71769;SDS011;59605;52.122;5.420;2022-07-03T15:32:46;1.93;;;0.50;;
71769;SDS011;59605;52.122;5.420;2022-07-03T15:35:14;1.95;;;0.52;;
71769;SDS011;59605;52.122;5.420;2022-07-03T15:38:02;5.22;;;0.40;;
71769;SDS011;59605;52.122;5.420;2022-07-03T15:49:30;0.98;;;0.30;;
71769;SDS011;59605;52.122;5.420;2022-07-03T15:57:07;5.80;;;0.60;;
71769;SDS011;59605;52.122;5.420;2022-07-03T15:59:43;15.77;;;2.70;;
71769;SDS011;59605;52.122;5.420;2022-07-03T16:02:15;6.38;;;1.02;;
71769;SDS011;59605;52.122;5.420;2022-07-03T16:04:51;8.15;;;2.70;;
71769;SDS011;59605;52.122;5.420;2022-07-03T16:07:26;11.30;;;2.25;;
71769;SDS011;59605;52.122;5.420;2022-07-03T16:09:55;7.85;;;2.05;;
71769;SDS011;59605;52.122;5.420;2022-07-03T16:12:28;7.03;;;2.60;;